Time;durP1;ratioP1;P1;durP2;ratioP2;P2;SDS_P1;SDS_P2;PMS_P1;PMS_P2;Temp;Humidity;BMP_temperature;BMP_pressure;BME280_temperature;BME280_humidity;BME280_pressure;Samples;Min_cycle;Max_cycle;Signal;HPM_P1;HPM_P2
2022/04/08 00:00:57;;;;;;;;;;;15.60;99.90;;;;;;5089416;28;20288;-78
2022/04/08 00:03:23;;;;;;;;;;;15.60;99.90;;;;;;5092077;28;19904;-78
2022/04/08 00:05:49;;;;;;;;;;;15.60;99.90;;;;;;5090686;28;19904;-78
2022/04/08 00:08:14;;;;;;;;;;;15.60;99.90;;;;;;5088891;28;19908;-78
2022/04/08 00:10:40;;;;;;;;;;;15.60;99.90;;;;;;5089271;28;19908;-77
2022/04/08 00:13:06;;;;;;;;;;;15.60;99.90;;;;;;5089089;28;19911;-77
2022/04/08 00:15:33;;;;;;;;;;;15.60;99.90;;;;;;5090865;28;20300;-77
2022/04/08 00:17:59;;;;;;;;;;;15.60;99.90;;;;;;5091646;28;19954;-77
2022/04/08 00:20:26;;;;;;;;;;;15.60;99.90;;;;;;5088473;28;20364;-78
2022/04/08 00:22:52;;;;;;;;;;;15.60;99.90;;;;;;5089887;28;20316;-78
2022/04/08 00:25:17;;;;;;;;;;;15.60;99.90;;;;;;5089108;28;19911;-78
2022/04/08 00:27:43;;;;;;;;;;;15.50;99.90;;;;;;5089234;28;19912;-78
2022/04/08 00:30:09;;;;;;;;;;;15.50;99.90;;;;;;5092509;28;19908;-78
2022/04/08 00:32:34;;;;;;;;;;;15.60;99.90;;;;;;5089036;28;20006;-78
2022/04/08 00:35:00;;;;;;;;;;;15.50;99.90;;;;;;5089104;28;19904;-77
2022/04/08 00:37:25;;;;;;;;;;;15.50;99.90;;;;;;5088524;28;20002;-77
2022/04/08 00:39:51;;;;;;;;;;;15.50;99.90;;;;;;5070906;28;19904;-78
2022/04/08 00:42:17;;;;;;;;;;;15.50;99.90;;;;;;5091068;28;19908;-78
2022/04/08 00:44:42;;;;;;;;;;;15.50;99.90;;;;;;5089714;28;19918;-77
2022/04/08 00:47:08;;;;;;;;;;;15.40;99.90;;;;;;5088769;28;19987;-77
2022/04/08 00:49:35;;;;;;;;;;;15.40;99.90;;;;;;5088431;28;19961;-78
2022/04/08 00:52:00;;;;;;;;;;;15.40;99.90;;;;;;5088772;28;19919;-77
2022/04/08 00:54:26;;;;;;;;;;;15.30;99.90;;;;;;5090800;28;19918;-78
2022/04/08 00:56:52;;;;;;;;;;;15.30;99.90;;;;;;5090094;28;19922;-78
2022/04/08 00:59:18;;;;;;;;;;;15.30;99.90;;;;;;5088751;28;19904;-77
2022/04/08 01:01:44;;;;;;;;;;;15.30;99.90;;;;;;5089775;28;19927;-77
2022/04/08 01:04:09;;;;;;;;;;;15.30;99.90;;;;;;5088678;28;19904;-78
2022/04/08 01:06:35;;;;;;;;;;;15.30;99.90;;;;;;5089288;28;19916;-78
2022/04/08 01:09:01;;;;;;;;;;;15.20;99.90;;;;;;5091366;28;19944;-77
2022/04/08 01:11:27;;;;;;;;;;;15.20;99.90;;;;;;5088389;28;19950;-77
2022/04/08 01:13:53;;;;;;;;;;;15.20;99.90;;;;;;5088595;28;20322;-78
2022/04/08 01:16:19;;;;;;;;;;;15.20;99.90;;;;;;5089018;28;19911;-78
2022/04/08 01:18:45;;;;;;;;;;;15.20;99.90;;;;;;5088540;28;19962;-78
2022/04/08 01:21:10;;;;;;;;;;;15.10;99.90;;;;;;5091402;28;19990;-78
2022/04/08 01:23:36;;;;;;;;;;;15.20;99.90;;;;;;5090295;28;19908;-78
2022/04/08 01:26:05;;;;;;;;;;;15.20;99.90;;;;;;5088307;28;19904;-77
2022/04/08 01:28:31;;;;;;;;;;;15.20;99.90;;;;;;5088410;28;19948;-78
2022/04/08 01:30:56;;;;;;;;;;;15.10;99.90;;;;;;5088640;28;20388;-78
2022/04/08 01:33:22;;;;;;;;;;;15.10;99.90;;;;;;5090725;28;19915;-78
2022/04/08 01:35:47;;;;;;;;;;;15.10;99.90;;;;;;5089464;28;19912;-77
2022/04/08 01:38:13;;;;;;;;;;;15.10;99.90;;;;;;5088213;28;19912;-77
2022/04/08 01:40:38;;;;;;;;;;;15.00;99.90;;;;;;5089431;28;20319;-78
2022/04/08 01:43:04;;;;;;;;;;;15.00;99.90;;;;;;5088448;28;19904;-77
2022/04/08 01:45:30;;;;;;;;;;;15.00;99.90;;;;;;5089920;28;20368;-78
2022/04/08 01:47:55;;;;;;;;;;;15.00;99.90;;;;;;5090137;28;19944;-78
2022/04/08 01:50:22;;;;;;;;;;;15.00;99.90;;;;;;5088245;28;19911;-77
2022/04/08 01:52:48;;;;;;;;;;;15.00;99.90;;;;;;5088008;28;20403;-77
2022/04/08 01:55:14;;;;;;;;;;;15.00;99.90;;;;;;5088009;28;19926;-77
2022/04/08 01:57:41;;;;;;;;;;;14.90;99.90;;;;;;5088510;28;20407;-77
2022/04/08 02:00:08;;;;;;;;;;;14.90;99.90;;;;;;5088348;28;20372;-78
2022/04/08 02:02:34;;;;;;;;;;;14.90;99.90;;;;;;5091762;28;19916;-77
2022/04/08 02:04:59;;;;;;;;;;;14.80;99.90;;;;;;5091573;28;20369;-77
2022/04/08 02:07:26;;;;;;;;;;;14.80;99.90;;;;;;5091629;28;20018;-77
2022/04/08 02:09:52;;;;;;;;;;;14.80;99.90;;;;;;5091896;28;20391;-77
2022/04/08 02:12:18;;;;;;;;;;;14.70;99.90;;;;;;5093953;28;19904;-78
2022/04/08 02:14:43;;;;;;;;;;;14.60;99.90;;;;;;5092809;28;19904;-77
2022/04/08 02:17:09;;;;;;;;;;;14.50;99.90;;;;;;5091211;28;19915;-77
2022/04/08 02:19:34;;;;;;;;;;;14.50;99.90;;;;;;5091272;28;20404;-77
2022/04/08 02:22:00;;;;;;;;;;;14.40;99.90;;;;;;5091404;28;19939;-77
2022/04/08 02:24:25;;;;;;;;;;;14.40;99.90;;;;;;5093447;28;19908;-77
2022/04/08 02:26:51;;;;;;;;;;;14.40;99.90;;;;;;5092863;28;20383;-77
2022/04/08 02:29:17;;;;;;;;;;;14.40;99.90;;;;;;5091639;28;19991;-77
2022/04/08 02:31:43;;;;;;;;;;;14.50;99.90;;;;;;5090880;28;20358;-77
2022/04/08 02:34:08;;;;;;;;;;;14.40;99.90;;;;;;5091148;28;19983;-77
2022/04/08 02:36:34;;;;;;;;;;;14.50;99.90;;;;;;5092226;28;19912;-78
2022/04/08 02:38:59;;;;;;;;;;;14.40;99.90;;;;;;5093510;28;20373;-78
2022/04/08 02:41:25;;;;;;;;;;;14.30;99.90;;;;;;5090746;28;20372;-78
2022/04/08 02:43:51;;;;;;;;;;;14.30;99.90;;;;;;5090925;28;19916;-78
2022/04/08 02:46:16;;;;;;;;;;;14.20;99.90;;;;;;5091010;28;19912;-78
2022/04/08 02:48:42;;;;;;;;;;;14.20;99.90;;;;;;5091124;28;19998;-77
2022/04/08 02:51:07;;;;;;;;;;;14.10;99.90;;;;;;5094242;28;19958;-78
2022/04/08 02:53:33;;;;;;;;;;;14.10;99.90;;;;;;5090465;28;19926;-77
2022/04/08 02:56:00;;;;;;;;;;;14.00;99.90;;;;;;5091021;28;19920;-77
2022/04/08 02:58:29;;;;;;;;;;;13.90;99.90;;;;;;5090805;28;20376;-78
2022/04/08 03:00:57;;;;;;;;;;;13.80;99.90;;;;;;5090258;28;19999;-77
2022/04/08 03:03:26;;;;;;;;;;;13.80;99.90;;;;;;5092939;28;19940;-77
2022/04/08 03:05:51;;;;;;;;;;;13.80;99.90;;;;;;5092320;28;20353;-77
2022/04/08 03:08:17;;;;;;;;;;;13.80;99.90;;;;;;5090710;28;20377;-77
2022/04/08 03:10:43;;;;;;;;;;;13.70;99.90;;;;;;5090436;28;19912;-77
2022/04/08 03:13:09;;;;;;;;;;;13.70;99.90;;;;;;5090557;28;20273;-77
2022/04/08 03:15:34;;;;;;;;;;;13.70;99.90;;;;;;5091010;28;19908;-77
2022/04/08 03:18:00;;;;;;;;;;;13.70;99.90;;;;;;5092900;28;20379;-77
2022/04/08 03:20:26;;;;;;;;;;;13.80;99.90;;;;;;5090100;28;20022;-77
2022/04/08 03:22:51;;;;;;;;;;;13.80;99.90;;;;;;5090030;28;19908;-77
2022/04/08 03:25:17;;;;;;;;;;;13.80;99.90;;;;;;5090030;28;19912;-78
2022/04/08 03:27:42;;;;;;;;;;;13.80;99.90;;;;;;5090753;28;19955;-77
2022/04/08 03:30:08;;;;;;;;;;;13.80;99.90;;;;;;5093330;28;19904;-77
2022/04/08 03:32:34;;;;;;;;;;;13.90;99.90;;;;;;5089947;28;19940;-77
2022/04/08 03:35:00;;;;;;;;;;;13.80;99.90;;;;;;5090000;28;19973;-77
2022/04/08 03:37:26;;;;;;;;;;;13.80;99.90;;;;;;5090038;28;19914;-77
2022/04/08 03:39:51;;;;;;;;;;;13.80;99.90;;;;;;5089931;28;19915;-77
2022/04/08 03:42:17;;;;;;;;;;;13.80;99.90;;;;;;5092886;28;20296;-77
2022/04/08 03:44:42;;;;;;;;;;;13.80;99.90;;;;;;5090791;28;19904;-77
2022/04/08 03:47:08;;;;;;;;;;;13.80;99.90;;;;;;5089651;28;19936;-77
2022/04/08 03:49:36;;;;;;;;;;;13.80;99.90;;;;;;5089582;28;19916;-77
2022/04/08 03:52:05;;;;;;;;;;;13.80;99.90;;;;;;5089492;28;19995;-76
2022/04/08 03:54:31;;;;;;;;;;;13.80;99.90;;;;;;5091295;28;20921;-77
2022/04/08 03:56:56;;;;;;;;;;;13.80;99.90;;;;;;5091934;28;19915;-77
2022/04/08 03:59:22;;;;;;;;;;;13.70;99.90;;;;;;5088825;28;19915;-77
2022/04/08 04:01:49;;;;;;;;;;;13.70;99.90;;;;;;5089842;28;20373;-77
2022/04/08 04:04:15;;;;;;;;;;;13.70;99.90;;;;;;5089323;28;19934;-77
2022/04/08 04:06:41;;;;;;;;;;;13.70;99.90;;;;;;5089546;28;19912;-77
2022/04/08 04:09:06;;;;;;;;;;;13.70;99.90;;;;;;5092680;28;19904;-77
2022/04/08 04:11:33;;;;;;;;;;;13.70;99.90;;;;;;5089302;28;19908;-76
2022/04/08 04:13:59;;;;;;;;;;;13.80;99.90;;;;;;5088842;28;19931;-77
2022/04/08 04:16:26;;;;;;;;;;;13.80;99.90;;;;;;5089603;28;19935;-77
2022/04/08 04:18:51;;;;;;;;;;;13.70;99.90;;;;;;5089283;28;20349;-77
2022/04/08 04:21:17;;;;;;;;;;;13.80;99.90;;;;;;5091698;28;19922;-77
2022/04/08 04:23:42;;;;;;;;;;;13.80;99.90;;;;;;5089675;28;19908;-77
2022/04/08 04:26:08;;;;;;;;;;;13.70;99.90;;;;;;5089369;28;19930;-77
2022/04/08 04:28:34;;;;;;;;;;;13.70;99.90;;;;;;5088796;28;19916;-77
2022/04/08 04:31:01;;;;;;;;;;;13.70;99.90;;;;;;5089101;28;19950;-77
2022/04/08 04:33:27;;;;;;;;;;;13.70;99.90;;;;;;5091083;28;19969;-77
2022/04/08 04:35:52;;;;;;;;;;;13.70;99.90;;;;;;5090262;28;20357;-77
2022/04/08 04:38:18;;;;;;;;;;;13.70;99.90;;;;;;5088889;28;19904;-77
2022/04/08 04:40:43;;;;;;;;;;;13.70;99.90;;;;;;5089149;28;19927;-77
2022/04/08 04:43:09;;;;;;;;;;;13.70;99.90;;;;;;5088622;28;19908;-77
2022/04/08 04:45:37;;;;;;;;;;;13.70;99.90;;;;;;5089753;28;20395;-77
2022/04/08 04:48:03;;;;;;;;;;;13.70;99.90;;;;;;5091677;28;19904;-77
2022/04/08 04:50:29;;;;;;;;;;;13.80;99.90;;;;;;5088518;28;19904;-76
2022/04/08 04:52:55;;;;;;;;;;;13.80;99.90;;;;;;5088635;28;19941;-77
2022/04/08 04:55:20;;;;;;;;;;;13.80;99.90;;;;;;5090506;28;19915;-77
2022/04/08 04:57:46;;;;;;;;;;;13.80;99.90;;;;;;5088532;28;19916;-77
2022/04/08 05:00:12;;;;;;;;;;;13.70;99.90;;;;;;5092362;28;20046;-77
2022/04/08 05:02:37;;;;;;;;;;;13.70;99.90;;;;;;5090395;28;20272;-76
2022/04/08 05:05:03;;;;;;;;;;;13.70;99.90;;;;;;5088886;28;19914;-77
2022/04/08 05:07:29;;;;;;;;;;;13.70;99.90;;;;;;5088639;28;19991;-76
2022/04/08 05:09:54;;;;;;;;;;;13.70;99.90;;;;;;5088647;28;19912;-77
2022/04/08 05:12:20;;;;;;;;;;;13.70;99.90;;;;;;5090676;28;19908;-77
2022/04/08 05:14:45;;;;;;;;;;;13.80;99.90;;;;;;5089621;28;19969;-77
2022/04/08 05:17:11;;;;;;;;;;;13.80;99.90;;;;;;5088303;28;19937;-78
2022/04/08 05:19:37;;;;;;;;;;;13.80;99.90;;;;;;5088433;28;19957;-77
2022/04/08 05:22:02;;;;;;;;;;;13.80;99.90;;;;;;5088369;28;19916;-77
2022/04/08 05:24:28;;;;;;;;;;;13.80;99.90;;;;;;5090461;28;19904;-76
2022/04/08 05:26:54;;;;;;;;;;;13.90;99.90;;;;;;5089755;28;19908;-78
2022/04/08 05:29:20;;;;;;;;;;;13.90;99.90;;;;;;5088738;28;20280;-74
2022/04/08 05:31:47;;;;;;;;;;;13.90;99.90;;;;;;5088362;28;19908;-79
2022/04/08 05:34:12;;;;;;;;;;;13.90;99.90;;;;;;5088529;28;19960;-79
2022/04/08 05:36:38;;;;;;;;;;;14.00;99.90;;;;;;5092918;28;19994;-78
2022/04/08 05:39:03;;;;;;;;;;;14.00;99.90;;;;;;5095085;28;19908;-78
2022/04/08 05:41:29;;;;;;;;;;;14.00;99.90;;;;;;5091626;28;19923;-78
2022/04/08 05:43:55;;;;;;;;;;;14.10;99.90;;;;;;5091887;28;20437;-78
2022/04/08 05:46:20;;;;;;;;;;;14.10;99.90;;;;;;5091233;28;20007;-79
2022/04/08 05:48:46;;;;;;;;;;;14.10;99.90;;;;;;5091927;28;19916;-78
2022/04/08 05:51:11;;;;;;;;;;;14.10;99.90;;;;;;5095444;28;20334;-78
2022/04/08 05:53:37;;;;;;;;;;;14.10;99.90;;;;;;5092196;28;19920;-78
2022/04/08 05:56:03;;;;;;;;;;;14.10;99.90;;;;;;5091400;28;19998;-80
2022/04/08 05:58:29;;;;;;;;;;;14.20;99.90;;;;;;5091405;28;20379;-78
2022/04/08 06:00:54;;;;;;;;;;;14.20;99.90;;;;;;5091531;28;19916;-77
2022/04/08 06:03:20;;;;;;;;;;;14.20;99.90;;;;;;5094049;28;19986;-77
2022/04/08 06:05:45;;;;;;;;;;;14.20;99.90;;;;;;5092908;28;19911;-76
2022/04/08 06:08:11;;;;;;;;;;;14.20;99.90;;;;;;5091599;28;20414;-77
2022/04/08 06:10:37;;;;;;;;;;;14.30;99.90;;;;;;5090883;28;19918;-77
2022/04/08 06:13:03;;;;;;;;;;;14.30;99.90;;;;;;5092444;28;19920;-77
2022/04/08 06:15:28;;;;;;;;;;;14.30;99.90;;;;;;5092561;28;19911;-77
2022/04/08 06:17:55;;;;;;;;;;;14.40;99.90;;;;;;5092298;28;19904;-77
2022/04/08 06:20:21;;;;;;;;;;;14.40;99.90;;;;;;5090877;28;19952;-77
2022/04/08 06:22:49;;;;;;;;;;;14.50;99.90;;;;;;5091145;28;19987;-76
2022/04/08 06:25:16;;;;;;;;;;;14.50;99.90;;;;;;5090349;28;19939;-78
2022/04/08 06:27:44;;;;;;;;;;;14.50;99.90;;;;;;5091671;28;19908;-79
2022/04/08 06:30:11;;;;;;;;;;;14.60;99.90;;;;;;5072126;28;19911;-77
2022/04/08 06:32:39;;;;;;;;;;;14.60;99.90;;;;;;5088925;28;19953;-78
2022/04/08 06:35:05;;;;;;;;;;;14.70;99.90;;;;;;5090830;28;20356;-78
2022/04/08 06:37:30;;;;;;;;;;;14.70;99.90;;;;;;5090034;28;19955;-78
2022/04/08 06:40:01;;;;;;;;;;;14.70;99.90;;;;;;5090866;28;20311;-78
2022/04/08 06:42:26;;;;;;;;;;;14.80;99.90;;;;;;5090915;28;20391;-80
2022/04/08 06:44:52;;;;;;;;;;;14.80;99.90;;;;;;5091007;28;19908;-81
2022/04/08 06:47:18;;;;;;;;;;;14.80;99.90;;;;;;5089371;28;20089;-80
2022/04/08 06:49:46;;;;;;;;;;;14.80;99.90;;;;;;5089867;28;19919;-80
2022/04/08 06:52:12;;;;;;;;;;;14.90;99.90;;;;;;5091735;28;20433;-80
2022/04/08 06:54:38;;;;;;;;;;;14.90;99.90;;;;;;5091329;28;20399;-80
2022/04/08 06:57:04;;;;;;;;;;;15.00;99.90;;;;;;5093659;28;19908;-81
2022/04/08 06:59:29;;;;;;;;;;;15.10;99.90;;;;;;5090463;28;19908;-81
2022/04/08 07:01:55;;;;;;;;;;;15.10;99.90;;;;;;5090494;28;19916;-81
2022/04/08 07:04:20;;;;;;;;;;;15.10;99.90;;;;;;5090550;28;19908;-80
2022/04/08 07:06:46;;;;;;;;;;;15.10;99.90;;;;;;5090705;28;19908;-80
2022/04/08 07:09:12;;;;;;;;;;;15.10;99.90;;;;;;5093600;28;19904;-80
2022/04/08 07:11:37;;;;;;;;;;;15.00;99.90;;;;;;5091252;28;20352;-80
2022/04/08 07:14:04;;;;;;;;;;;15.00;99.90;;;;;;5091921;28;20004;-80
2022/04/08 07:16:29;;;;;;;;;;;15.00;99.90;;;;;;5089569;28;19961;-81
2022/04/08 07:18:55;;;;;;;;;;;15.00;99.90;;;;;;5090247;28;20287;-80
2022/04/08 07:21:22;;;;;;;;;;;15.10;99.90;;;;;;5092099;28;19912;-80
2022/04/08 07:23:48;;;;;;;;;;;15.10;99.90;;;;;;5091470;28;19907;-80
2022/04/08 07:26:14;;;;;;;;;;;15.20;99.90;;;;;;5090220;28;19960;-80
2022/04/08 07:28:39;;;;;;;;;;;15.30;99.90;;;;;;5089950;28;19969;-80
2022/04/08 07:31:05;;;;;;;;;;;15.40;99.90;;;;;;5090447;28;20372;-80
2022/04/08 07:33:31;;;;;;;;;;;15.50;99.90;;;;;;5091841;28;19915;-80
2022/04/08 07:35:58;;;;;;;;;;;15.50;99.90;;;;;;5091441;28;19927;-81
2022/04/08 07:38:24;;;;;;;;;;;15.50;99.90;;;;;;5090142;28;19912;-81
2022/04/08 07:40:50;;;;;;;;;;;15.50;99.90;;;;;;5089476;28;20295;-81
2022/04/08 07:43:16;;;;;;;;;;;15.50;99.90;;;;;;5089947;28;20425;-81
2022/04/08 07:45:42;;;;;;;;;;;15.40;99.90;;;;;;5089885;28;19908;-82
2022/04/08 07:48:08;;;;;;;;;;;15.40;99.90;;;;;;5088846;28;19904;-82
2022/04/08 07:50:37;;;;;;;;;;;15.50;99.90;;;;;;5089293;28;20325;-82
2022/04/08 07:53:02;;;;;;;;;;;15.50;99.90;;;;;;5089852;28;20388;-82
2022/04/08 07:55:29;;;;;;;;;;;15.50;99.90;;;;;;5089455;28;19954;-82
2022/04/08 07:57:54;;;;;;;;;;;15.70;99.90;;;;;;5088833;28;19954;-82
2022/04/08 08:00:21;;;;;;;;;;;15.80;99.90;;;;;;5091459;28;19951;-83
2022/04/08 08:02:48;;;;;;;;;;;15.90;99.90;;;;;;5090375;28;19950;-82
2022/04/08 08:05:14;;;;;;;;;;;16.00;99.90;;;;;;5089066;28;20322;-82
2022/04/08 08:07:45;;;;;;;;;;;16.20;99.90;;;;;;5089683;28;20399;-82
2022/04/08 08:10:15;;;;;;;;;;;16.30;99.90;;;;;;5090785;28;20398;-81
2022/04/08 08:12:40;;;;;;;;;;;16.40;99.90;;;;;;5073366;28;19908;-81
2022/04/08 08:15:06;;;;;;;;;;;16.50;99.90;;;;;;5092426;28;19911;-82
2022/04/08 08:17:32;;;;;;;;;;;16.60;99.90;;;;;;5089206;28;19949;-83
2022/04/08 08:19:57;;;;;;;;;;;16.50;99.90;;;;;;5088631;28;20478;-82
2022/04/08 08:22:23;;;;;;;;;;;16.50;99.90;;;;;;5089360;28;19938;-82
2022/04/08 08:24:49;;;;;;;;;;;16.60;99.90;;;;;;5089528;28;19920;-82
2022/04/08 08:27:15;;;;;;;;;;;16.60;99.90;;;;;;5092107;28;19904;-83
2022/04/08 08:29:40;;;;;;;;;;;16.60;99.90;;;;;;5089506;28;19904;-83
2022/04/08 08:32:06;;;;;;;;;;;16.60;99.90;;;;;;5089328;28;19998;-81
2022/04/08 08:34:32;;;;;;;;;;;16.70;99.90;;;;;;5088708;28;20025;-84
2022/04/08 08:36:59;;;;;;;;;;;16.70;99.90;;;;;;5089117;28;19931;-84
2022/04/08 08:39:26;;;;;;;;;;;16.80;99.90;;;;;;5091096;28;19910;-82
2022/04/08 08:41:51;;;;;;;;;;;16.90;99.90;;;;;;5089837;28;19916;-80
2022/04/08 08:44:19;;;;;;;;;;;16.90;99.90;;;;;;5089122;28;20265;-80
2022/04/08 08:46:44;;;;;;;;;;;17.00;99.90;;;;;;5088745;28;19919;-80
2022/04/08 08:49:11;;;;;;;;;;;17.10;99.90;;;;;;5088481;28;20330;-80
2022/04/08 08:51:39;;;;;;;;;;;17.30;99.90;;;;;;5089716;28;19912;-81
2022/04/08 08:54:05;;;;;;;;;;;17.40;99.90;;;;;;5091500;28;19923;-81
2022/04/08 08:56:30;;;;;;;;;;;17.60;99.90;;;;;;5088582;28;19908;-82
2022/04/08 08:58:56;;;;;;;;;;;17.70;99.90;;;;;;5088619;28;19908;-82
2022/04/08 09:01:21;;;;;;;;;;;17.70;99.90;;;;;;5088523;28;19919;-82
2022/04/08 09:03:47;;;;;;;;;;;17.70;99.90;;;;;;5088484;28;19916;-81
2022/04/08 09:06:13;;;;;;;;;;;17.90;99.90;;;;;;5092004;28;20360;-81
2022/04/08 09:08:38;;;;;;;;;;;18.00;99.90;;;;;;5090878;28;19926;-81
2022/04/08 09:11:04;;;;;;;;;;;18.00;99.90;;;;;;5092942;28;19915;-82
2022/04/08 09:13:30;;;;;;;;;;;18.10;99.90;;;;;;5092563;28;19940;-82
2022/04/08 09:15:57;;;;;;;;;;;18.30;99.90;;;;;;5092934;28;19981;-81
2022/04/08 09:18:23;;;;;;;;;;;18.30;99.90;;;;;;5094645;28;19911;-81
2022/04/08 09:20:49;;;;;;;;;;;18.40;99.90;;;;;;5093497;28;20465;-81
2022/04/08 09:23:16;;;;;;;;;;;18.40;99.90;;;;;;5092709;28;19994;-80
2022/04/08 09:25:42;;;;;;;;;;;18.50;99.90;;;;;;5092475;28;19908;-80
2022/04/08 09:28:09;;;;;;;;;;;18.70;99.90;;;;;;5092494;28;19908;-80
2022/04/08 09:30:35;;;;;;;;;;;18.70;99.90;;;;;;5093689;28;19938;-80
2022/04/08 09:33:21;;;;;;;;;;;18.80;99.90;;;;;;5094405;28;20356;-81
2022/04/08 09:35:49;;;;;;;;;;;18.90;99.90;;;;;;5094505;28;19953;-81
2022/04/08 09:38:22;;;;;;;;;;;18.80;99.90;;;;;;5092395;28;19965;-81
2022/04/08 09:40:48;;;;;;;;;;;18.90;99.90;;;;;;5092141;28;20430;-81
2022/04/08 09:43:14;;;;;;;;;;;19.00;99.90;;;;;;5092738;28;19911;-81
2022/04/08 09:45:40;;;;;;;;;;;18.90;99.90;;;;;;5092672;28;19923;-81
2022/04/08 09:48:07;;;;;;;;;;;19.10;99.90;;;;;;5094825;28;19904;-81
2022/04/08 09:50:33;;;;;;;;;;;19.10;99.90;;;;;;5091950;28;19908;-81
2022/04/08 09:52:59;;;;;;;;;;;19.20;99.90;;;;;;5091747;28;19922;-82
2022/04/08 09:55:25;;;;;;;;;;;19.30;99.90;;;;;;5091771;28;19915;-82
2022/04/08 09:57:55;;;;;;;;;;;19.40;99.90;;;;;;5091967;28;19959;-81
2022/04/08 10:00:21;;;;;;;;;;;19.40;99.90;;;;;;5094229;28;20380;-82
2022/04/08 10:02:48;;;;;;;;;;;19.30;99.90;;;;;;5092969;28;19934;-82
2022/04/08 10:05:13;;;;;;;;;;;19.10;99.90;;;;;;5091953;28;19912;-81
2022/04/08 10:07:40;;;;;;;;;;;19.20;99.90;;;;;;5091625;28;19908;-81
2022/04/08 10:10:24;;;;;;;;;;;19.40;99.90;;;;;;5091557;28;19908;-81
2022/04/08 10:12:50;;;;;;;;;;;19.50;99.90;;;;;;5076652;28;20288;-81
2022/04/08 10:15:23;;;;;;;;;;;19.70;99.90;;;;;;5076412;28;19911;-81
2022/04/08 10:17:58;;;;;;;;;;;19.80;99.90;;;;;;5094475;28;19904;-81
2022/04/08 10:20:25;;;;;;;;;;;19.80;99.90;;;;;;5090342;28;20029;-80
2022/04/08 10:22:52;;;;;;;;;;;19.90;99.90;;;;;;5091445;28;19919;-81
2022/04/08 10:25:18;;;;;;;;;;;19.90;99.90;;;;;;5091451;28;19985;-82
2022/04/08 10:27:44;;;;;;;;;;;19.80;99.90;;;;;;5091643;28;19952;-81
2022/04/08 10:30:13;;;;;;;;;;;19.90;99.90;;;;;;5094806;28;20215;-80
2022/04/08 10:32:39;;;;;;;;;;;19.90;99.90;;;;;;5091447;28;19908;-80
2022/04/08 10:35:14;;;;;;;;;;;19.90;99.90;;;;;;5091050;28;20295;-81
2022/04/08 10:37:41;;;;;;;;;;;20.00;99.90;;;;;;5091047;28;19915;-81
2022/04/08 10:40:09;;;;;;;;;;;20.00;99.90;;;;;;5091059;28;19908;-81
2022/04/08 10:42:35;;;;;;;;;;;20.40;99.90;;;;;;5092443;28;19954;-81
2022/04/08 10:45:13;;;;;;;;;;;20.20;99.90;;;;;;5093138;28;19904;-81
2022/04/08 10:47:48;;;;;;;;;;;20.20;99.90;;;;;;5091107;28;20004;-80
2022/04/08 10:50:28;;;;;;;;;;;20.30;99.90;;;;;;5090685;28;19912;-79
2022/04/08 10:53:07;;;;;;;;;;;20.40;99.90;;;;;;5090401;28;20330;-80
2022/04/08 10:55:46;;;;;;;;;;;20.60;99.90;;;;;;5090342;28;19912;-81
2022/04/08 10:58:12;;;;;;;;;;;20.60;99.50;;;;;;5091020;28;19965;-81
2022/04/08 11:00:40;;;;;;;;;;;20.70;99.90;;;;;;5091271;28;20295;-81
2022/04/08 11:03:07;;;;;;;;;;;20.80;99.90;;;;;;5093550;28;19904;-81
2022/04/08 11:05:38;;;;;;;;;;;20.90;99.50;;;;;;5090780;28;20014;-82
2022/04/08 11:08:04;;;;;;;;;;;20.90;99.90;;;;;;5090520;28;19908;-81
2022/04/08 11:10:31;;;;;;;;;;;20.90;99.20;;;;;;5090473;28;20279;-81
2022/04/08 11:12:57;;;;;;;;;;;20.70;99.80;;;;;;5090580;28;19908;-80
2022/04/08 11:15:24;;;;;;;;;;;20.90;99.00;;;;;;5092456;28;19958;-81
2022/04/08 11:17:50;;;;;;;;;;;20.80;98.70;;;;;;5091712;28;19972;-82
2022/04/08 11:20:17;;;;;;;;;;;21.00;98.30;;;;;;5089749;28;19919;-81
2022/04/08 11:22:44;;;;;;;;;;;20.90;97.60;;;;;;5090087;28;19908;-82
2022/04/08 11:25:10;;;;;;;;;;;20.90;97.80;;;;;;5090595;28;19915;-80
2022/04/08 11:27:36;;;;;;;;;;;20.90;98.20;;;;;;5091590;28;19933;-81
2022/04/08 11:30:08;;;;;;;;;;;21.00;98.50;;;;;;5092257;28;19904;-82
2022/04/08 11:32:34;;;;;;;;;;;21.00;97.40;;;;;;5088934;28;20430;-82
2022/04/08 11:35:09;;;;;;;;;;;21.00;97.80;;;;;;5089926;28;19908;-81
2022/04/08 11:37:35;;;;;;;;;;;21.10;97.00;;;;;;5089895;28;19954;-81
2022/04/08 11:40:00;;;;;;;;;;;21.10;96.80;;;;;;5090241;28;20285;-82
2022/04/08 11:42:26;;;;;;;;;;;21.10;97.70;;;;;;5092085;28;19908;-81
2022/04/08 11:44:52;;;;;;;;;;;21.20;98.50;;;;;;5090837;28;19908;-82
2022/04/08 11:47:18;;;;;;;;;;;21.20;98.70;;;;;;5089744;28;20508;-81
2022/04/08 11:49:44;;;;;;;;;;;21.00;98.70;;;;;;5089375;28;19912;-80
2022/04/08 11:52:10;;;;;;;;;;;20.90;98.70;;;;;;5089592;28;20300;-80
2022/04/08 11:54:36;;;;;;;;;;;20.90;97.90;;;;;;5090900;28;19915;-81
2022/04/08 11:57:04;;;;;;;;;;;20.80;98.40;;;;;;5092008;28;19904;-82
2022/04/08 11:59:30;;;;;;;;;;;20.80;99.10;;;;;;5089577;28;19974;-81
2022/04/08 12:01:59;;;;;;;;;;;20.80;99.40;;;;;;5089513;28;19922;-81
2022/04/08 12:04:25;;;;;;;;;;;20.80;99.20;;;;;;5090707;28;19907;-81
2022/04/08 12:06:50;;;;;;;;;;;20.60;99.70;;;;;;5089624;28;20007;-81
2022/04/08 12:09:17;;;;;;;;;;;20.30;99.90;;;;;;5092553;28;19915;-81
2022/04/08 12:11:44;;;;;;;;;;;20.40;99.90;;;;;;5089194;28;20010;-82
2022/04/08 12:14:10;;;;;;;;;;;20.40;99.90;;;;;;5089524;28;19946;-78
2022/04/08 12:16:36;;;;;;;;;;;20.50;99.90;;;;;;5088849;28;19943;-79
2022/04/08 12:19:02;;;;;;;;;;;20.60;99.90;;;;;;5089881;28;19908;-78
2022/04/08 12:21:29;;;;;;;;;;;20.70;99.90;;;;;;5091499;28;19965;-79
2022/04/08 12:23:55;;;;;;;;;;;20.70;99.60;;;;;;5090268;28;19912;-78
2022/04/08 12:26:32;;;;;;;;;;;20.80;99.70;;;;;;5088417;28;19908;-79
2022/04/08 12:29:13;;;;;;;;;;;20.80;99.50;;;;;;5088929;28;19947;-79
2022/04/08 12:31:49;;;;;;;;;;;20.70;99.70;;;;;;5088952;28;19908;-80
2022/04/08 12:34:15;;;;;;;;;;;20.50;98.90;;;;;;5089097;28;19995;-79
2022/04/08 12:36:42;;;;;;;;;;;20.20;99.90;;;;;;5089191;28;19916;-79
2022/04/08 12:39:08;;;;;;;;;;;20.10;99.90;;;;;;5091147;28;19911;-78
2022/04/08 12:41:37;;;;;;;;;;;20.30;99.90;;;;;;5088581;28;20419;-71
2022/04/08 12:44:02;;;;;;;;;;;20.60;99.90;;;;;;5088448;28;19908;-76
2022/04/08 12:46:28;;;;;;;;;;;20.70;99.40;;;;;;5088638;28;19915;-75
2022/04/08 12:48:54;;;;;;;;;;;20.90;99.90;;;;;;5088957;28;20446;-75
2022/04/08 12:51:19;;;;;;;;;;;20.90;98.70;;;;;;5090951;28;19915;-75
2022/04/08 12:53:45;;;;;;;;;;;20.90;98.70;;;;;;5090097;28;20284;-75
2022/04/08 12:56:10;;;;;;;;;;;20.90;99.10;;;;;;5090043;28;19912;-75
2022/04/08 12:58:36;;;;;;;;;;;21.00;98.40;;;;;;5088121;28;19908;-74
2022/04/08 13:01:02;;;;;;;;;;;20.70;98.60;;;;;;5088181;28;19924;-75
2022/04/08 13:03:27;;;;;;;;;;;20.80;97.80;;;;;;5090926;28;19926;-74
2022/04/08 13:05:53;;;;;;;;;;;20.80;97.40;;;;;;5090082;28;20272;-75
2022/04/08 13:08:18;;;;;;;;;;;20.90;97.70;;;;;;5088826;28;20376;-76
2022/04/08 13:10:44;;;;;;;;;;;20.80;97.50;;;;;;5086782;28;19921;-75
2022/04/08 13:13:10;;;;;;;;;;;20.70;98.20;;;;;;5084307;28;20383;-75
2022/04/08 13:15:35;;;;;;;;;;;20.80;97.80;;;;;;5088004;28;19927;-75
2022/04/08 13:18:02;;;;;;;;;;;21.00;97.40;;;;;;5092085;28;19908;-82
2022/04/08 13:20:27;;;;;;;;;;;21.00;97.30;;;;;;5089758;28;19978;-75
2022/04/08 13:22:53;;;;;;;;;;;20.90;97.50;;;;;;5089471;28;19912;-73
2022/04/08 13:25:20;;;;;;;;;;;20.70;97.70;;;;;;5089606;28;20394;-76
2022/04/08 13:27:46;;;;;;;;;;;21.10;97.90;;;;;;5085216;28;19912;-74
2022/04/08 13:30:12;;;;;;;;;;;21.10;97.70;;;;;;5091046;28;20430;-75
2022/04/08 13:32:38;;;;;;;;;;;21.00;97.90;;;;;;5089490;28;19959;-75
2022/04/08 13:35:04;;;;;;;;;;;21.00;98.10;;;;;;5089569;28;19951;-76
2022/04/08 13:37:30;;;;;;;;;;;21.00;98.00;;;;;;5089580;28;19918;-74
2022/04/08 13:39:56;;;;;;;;;;;20.80;97.40;;;;;;5086311;28;19909;-76
2022/04/08 13:42:22;;;;;;;;;;;20.60;98.00;;;;;;5090132;28;20299;-75
2022/04/08 13:44:49;;;;;;;;;;;20.60;97.90;;;;;;5090761;28;19908;-74
2022/04/08 13:47:14;;;;;;;;;;;20.90;97.40;;;;;;5088997;28;19923;-75
2022/04/08 13:49:40;;;;;;;;;;;20.90;97.10;;;;;;5091160;28;19998;-75
2022/04/08 13:52:05;;;;;;;;;;;20.90;96.80;;;;;;5087159;28;20323;-76
2022/04/08 13:54:31;;;;;;;;;;;20.90;96.40;;;;;;5083231;28;20011;-74
2022/04/08 13:56:57;;;;;;;;;;;21.00;97.20;;;;;;5090486;28;19956;-74
2022/04/08 13:59:22;;;;;;;;;;;21.10;97.60;;;;;;5088220;28;20376;-75
2022/04/08 14:01:48;;;;;;;;;;;21.40;96.30;;;;;;5091265;28;19980;-74
2022/04/08 14:04:13;;;;;;;;;;;21.50;95.70;;;;;;5088964;28;19912;-72
2022/04/08 14:06:39;;;;;;;;;;;21.60;94.60;;;;;;5086612;28;19913;-72
2022/04/08 14:09:05;;;;;;;;;;;21.20;94.70;;;;;;5091613;28;19910;-72
2022/04/08 14:11:31;;;;;;;;;;;21.00;95.20;;;;;;5088899;28;19912;-72